createdAt,value
2018-10-16T00:01:31.760Z,82.47
2018-10-16T00:04:00.823Z,82.37
2018-10-16T00:06:29.175Z,82.74
2018-10-16T00:08:57.671Z,84.93
2018-10-16T00:11:26.054Z,84.62
2018-10-16T00:13:54.478Z,85.35
2018-10-16T00:16:22.887Z,85.13
2018-10-16T00:18:51.701Z,84.44
2018-10-16T00:21:20.078Z,85.02
2018-10-16T00:23:48.461Z,84.73
2018-10-16T00:26:16.815Z,84.84
2018-10-16T00:28:45.199Z,84.60
2018-10-16T00:31:13.605Z,84.24
2018-10-16T00:33:42.025Z,83.94
2018-10-16T00:36:10.465Z,84.45
2018-10-16T00:38:38.958Z,85.06
2018-10-16T00:41:07.648Z,84.28
2018-10-16T00:43:36.051Z,84.37
2018-10-16T00:46:04.504Z,84.98
2018-10-16T00:48:32.957Z,85.16
2018-10-16T00:51:01.546Z,84.37
2018-10-16T00:53:30.049Z,85.14
2018-10-16T00:55:58.474Z,84.61
2018-10-16T00:58:27.009Z,84.44
2018-10-16T01:00:56.324Z,84.42
2018-10-16T01:03:24.734Z,84.76
2018-10-16T01:05:53.332Z,85.66
2018-10-16T01:08:21.767Z,85.67
2018-10-16T01:10:50.201Z,85.12
2018-10-16T01:13:18.667Z,84.85
2018-10-16T01:15:47.109Z,85.36
2018-10-16T01:18:15.519Z,85.79
2018-10-16T01:20:43.977Z,85.98
2018-10-16T01:23:12.445Z,86.27
2018-10-16T01:25:40.885Z,86.11
2018-10-16T01:28:09.524Z,86.47
2018-10-16T01:30:37.983Z,85.59
2018-10-16T01:33:06.386Z,85.72
2018-10-16T01:35:34.743Z,86.22
2018-10-16T01:38:03.179Z,86.54
2018-10-16T01:40:31.658Z,86.95
2018-10-16T01:43:00.150Z,86.51
2018-10-16T01:45:28.667Z,86.60
2018-10-16T01:47:57.885Z,87.41
2018-10-16T01:50:26.297Z,86.72
2018-10-16T01:52:54.703Z,87.60
2018-10-16T01:55:23.229Z,87.10
2018-10-16T01:57:51.836Z,87.72
2018-10-16T02:00:20.239Z,87.81
2018-10-16T02:02:48.665Z,87.48
2018-10-16T02:05:17.162Z,87.44
2018-10-16T02:07:45.596Z,88.15
2018-10-16T02:10:14.123Z,87.77
2018-10-16T02:12:42.548Z,88.36
2018-10-16T02:15:11.006Z,87.76
2018-10-16T02:17:40.327Z,88.07
2018-10-16T02:20:09.590Z,88.43
2018-10-16T02:22:38.681Z,89.12
2018-10-16T02:25:07.682Z,89.02
2018-10-16T02:27:36.127Z,88.80
2018-10-16T02:30:05.011Z,88.80
2018-10-16T02:32:34.074Z,89.15
2018-10-16T02:35:02.861Z,90.57
2018-10-16T02:37:31.351Z,90.02
2018-10-16T02:39:59.839Z,90.79
2018-10-16T02:42:28.262Z,90.29
2018-10-16T02:44:56.764Z,90.57
2018-10-16T02:47:25.172Z,90.35
2018-10-16T02:49:53.611Z,89.75
2018-10-16T02:52:22.525Z,90.22
2018-10-16T02:54:51.375Z,90.64
2018-10-16T02:57:19.869Z,90.47
2018-10-16T02:59:48.295Z,90.33
2018-10-16T03:02:16.880Z,90.76
2018-10-16T03:04:45.764Z,90.47
2018-10-16T03:07:14.167Z,90.35
2018-10-16T03:09:42.623Z,90.69
2018-10-16T03:12:11.126Z,90.91
2018-10-16T03:14:39.482Z,91.27
2018-10-16T03:17:08.120Z,91.04
2018-10-16T03:19:36.547Z,91.14
2018-10-16T03:22:05.018Z,91.00
2018-10-16T03:24:33.450Z,91.16
2018-10-16T03:27:02.221Z,90.89
2018-10-16T03:29:30.590Z,91.21
2018-10-16T03:31:59.688Z,90.76
2018-10-16T03:34:28.057Z,91.54
2018-10-16T03:36:56.574Z,91.22
2018-10-16T03:39:25.107Z,92.22
2018-10-16T03:41:53.481Z,93.15
2018-10-16T03:44:21.926Z,92.90
2018-10-16T03:46:50.503Z,93.24
2018-10-16T03:49:18.979Z,92.97
2018-10-16T03:51:47.396Z,93.31
2018-10-16T03:54:15.890Z,92.85
2018-10-16T03:56:44.245Z,93.59
2018-10-16T03:59:13.030Z,93.47
2018-10-16T04:01:41.397Z,94.21
2018-10-16T04:04:09.799Z,93.95
2018-10-16T04:06:38.267Z,94.44
2018-10-16T04:09:07.551Z,94.87
2018-10-16T04:11:35.978Z,94.91
2018-10-16T04:14:04.383Z,94.39
2018-10-16T04:16:32.944Z,94.30
2018-10-16T04:19:01.387Z,93.91
2018-10-16T04:21:38.540Z,93.93
2018-10-16T04:24:07.600Z,94.49
2018-10-16T04:26:36.004Z,94.35
2018-10-16T04:29:04.443Z,94.83
2018-10-16T04:31:32.896Z,94.63
2018-10-16T04:34:01.368Z,95.07
2018-10-16T04:36:30.127Z,94.65
2018-10-16T04:38:58.887Z,94.01
2018-10-16T04:41:27.569Z,94.56
2018-10-16T04:43:56.482Z,95.24
2018-10-16T04:46:26.231Z,95.20
2018-10-16T04:48:54.655Z,94.69
2018-10-16T04:51:23.093Z,94.29
2018-10-16T04:53:51.547Z,94.39
2018-10-16T04:56:20.067Z,94.70
2018-10-16T04:58:48.739Z,94.59
2018-10-16T05:01:17.314Z,94.46
2018-10-16T05:03:45.740Z,94.25
2018-10-16T05:06:14.171Z,94.79
2018-10-16T05:08:42.606Z,94.62
2018-10-16T05:11:11.043Z,94.45
2018-10-16T05:13:39.474Z,94.47
2018-10-16T05:16:07.922Z,95.07
2018-10-16T05:18:36.293Z,94.76
2018-10-16T05:21:05.054Z,94.69
2018-10-16T05:23:33.543Z,94.81
2018-10-16T05:26:02.009Z,94.62
2018-10-16T05:28:30.631Z,94.48
2018-10-16T05:30:59.144Z,94.88
2018-10-16T05:33:27.543Z,94.83
2018-10-16T05:35:56.007Z,94.97
2018-10-16T05:38:24.462Z,94.35
2018-10-16T05:40:52.944Z,94.66
2018-10-16T05:43:21.853Z,95.14
2018-10-16T05:45:50.462Z,94.48
2018-10-16T05:48:18.899Z,94.89
2018-10-16T05:50:47.275Z,94.73
2018-10-16T05:53:15.656Z,95.28
2018-10-16T05:55:44.057Z,95.20
2018-10-16T05:58:13.313Z,95.09
2018-10-16T06:00:43.327Z,94.94
2018-10-16T06:03:12.213Z,94.69
2018-10-16T06:05:40.652Z,94.69
2018-10-16T06:08:09.159Z,93.51
2018-10-16T06:10:37.783Z,94.15
2018-10-16T06:13:06.295Z,94.48
2018-10-16T06:15:34.724Z,94.15
2018-10-16T06:18:03.274Z,94.07
2018-10-16T06:20:31.734Z,94.31
2018-10-16T06:23:00.175Z,94.20
2018-10-16T06:25:28.657Z,94.09
2018-10-16T06:27:57.096Z,93.69
2018-10-16T06:30:25.481Z,94.05
2018-10-16T06:32:54.278Z,93.75
2018-10-16T06:35:22.807Z,93.86
2018-10-16T06:37:51.227Z,94.13
2018-10-16T06:40:19.633Z,93.80
2018-10-16T06:42:48.004Z,94.16
2018-10-16T06:45:16.476Z,93.16
2018-10-16T06:47:45.062Z,93.22
2018-10-16T06:50:14.276Z,93.40
2018-10-16T06:52:42.705Z,92.79
2018-10-16T06:55:11.658Z,93.56
2018-10-16T06:57:40.041Z,93.09
2018-10-16T07:00:08.669Z,91.73
2018-10-16T07:02:37.064Z,92.18
2018-10-16T07:05:07.106Z,92.77
2018-10-16T07:07:35.510Z,92.87
2018-10-16T07:10:04.072Z,91.92
2018-10-16T07:12:32.477Z,91.77
2018-10-16T07:15:00.975Z,91.10
2018-10-16T07:17:29.315Z,92.04
2018-10-16T07:19:57.747Z,92.27
2018-10-16T07:22:26.802Z,91.33
2018-10-16T07:24:55.274Z,91.68
2018-10-16T07:27:23.783Z,92.12
2018-10-16T07:29:52.459Z,91.87
2018-10-16T07:32:20.823Z,92.22
2018-10-16T07:34:49.774Z,91.46
2018-10-16T07:37:18.154Z,90.25
2018-10-16T07:39:46.605Z,90.43
2018-10-16T07:42:15.174Z,89.80
2018-10-16T07:44:43.570Z,89.54
2018-10-16T07:47:11.968Z,89.52
2018-10-16T07:49:40.348Z,88.65
2018-10-16T07:52:09.765Z,87.25
2018-10-16T07:54:38.549Z,85.95
2018-10-16T07:57:07.006Z,84.57
2018-10-16T07:59:35.395Z,84.29
2018-10-16T08:02:03.841Z,83.59
2018-10-16T08:04:32.329Z,83.47
2018-10-16T08:07:00.770Z,84.28
2018-10-16T08:09:29.999Z,83.50
2018-10-16T08:11:58.391Z,83.66
2018-10-16T08:14:26.808Z,82.98
2018-10-16T08:16:55.244Z,82.93
2018-10-16T08:19:23.748Z,80.79
2018-10-16T08:21:52.120Z,78.68
2018-10-16T08:24:20.505Z,74.39
2018-10-16T08:26:49.060Z,70.55
2018-10-16T08:29:18.072Z,66.81
2018-10-16T08:31:46.514Z,65.15
2018-10-16T08:34:15.017Z,65.95
2018-10-16T08:36:43.555Z,67.05
2018-10-16T08:39:19.424Z,67.86
2018-10-16T08:41:59.309Z,67.80
2018-10-16T08:44:42.717Z,68.60
2018-10-16T08:49:23.790Z,66.42
2018-10-16T08:51:53.462Z,65.45
2018-10-16T08:54:24.210Z,65.07
2018-10-16T08:56:52.941Z,64.68
2018-10-16T08:59:21.372Z,63.44
2018-10-16T09:01:49.826Z,63.44
2018-10-16T09:04:18.193Z,63.85
2018-10-16T09:06:46.677Z,64.10
2018-10-16T09:09:16.645Z,64.15
2018-10-16T09:11:46.352Z,64.57
2018-10-16T09:14:15.488Z,64.87
2018-10-16T09:16:43.916Z,65.07
2018-10-16T09:19:12.462Z,65.29
2018-10-16T09:21:40.865Z,66.55
2018-10-16T09:24:09.300Z,66.65
2018-10-16T09:26:37.748Z,67.02
2018-10-16T09:29:06.479Z,67.10
2018-10-16T09:31:35.518Z,67.35
2018-10-16T09:34:04.007Z,68.37
2018-10-16T09:36:32.557Z,67.99
2018-10-16T09:39:01.717Z,68.47
2018-10-16T09:41:30.920Z,68.98
2018-10-16T09:44:00.232Z,68.33
2018-10-16T09:46:29.329Z,67.91
2018-10-16T09:48:57.786Z,68.43
2018-10-16T09:51:26.192Z,67.81
2018-10-16T09:53:54.659Z,67.56
2018-10-16T09:56:23.224Z,66.92
2018-10-16T09:58:51.698Z,66.69
2018-10-16T10:01:25.313Z,66.85
2018-10-16T10:03:53.739Z,67.05
2018-10-16T10:06:22.668Z,66.98
2018-10-16T10:08:51.101Z,67.23
2018-10-16T10:11:19.927Z,66.71
2018-10-16T10:13:48.629Z,66.62
2018-10-16T10:16:17.484Z,67.35
2018-10-16T10:18:45.901Z,66.25
2018-10-16T10:21:14.339Z,66.33
2018-10-16T10:23:42.902Z,66.14
2018-10-16T10:26:11.374Z,65.33
2018-10-16T10:28:39.787Z,65.38
2018-10-16T10:31:08.238Z,65.45
2018-10-16T10:33:36.791Z,65.28
2018-10-16T10:36:05.866Z,65.11
2018-10-16T10:38:34.327Z,65.49
2018-10-16T10:41:02.916Z,65.56
2018-10-16T10:43:31.335Z,65.30
2018-10-16T10:45:59.741Z,65.52
2018-10-16T10:48:28.274Z,65.57
2018-10-16T10:50:56.813Z,65.75
2018-10-16T10:53:25.107Z,65.79
2018-10-16T10:55:53.521Z,65.64
2018-10-16T10:58:21.904Z,65.10
2018-10-16T11:00:50.292Z,64.47
2018-10-16T11:03:18.797Z,64.88
2018-10-16T11:05:47.082Z,64.95
2018-10-16T11:08:15.521Z,64.15
2018-10-16T11:10:43.949Z,63.11
2018-10-16T11:13:12.356Z,62.31
2018-10-16T11:15:40.820Z,62.50
2018-10-16T11:18:09.297Z,62.29
2018-10-16T11:20:37.684Z,62.16
2018-10-16T11:23:06.359Z,62.03
2018-10-16T11:25:34.703Z,62.35
2018-10-16T11:28:03.374Z,62.21
2018-10-16T11:30:31.872Z,60.99
2018-10-16T11:33:00.344Z,62.25
2018-10-16T11:35:29.243Z,62.79
2018-10-16T11:37:57.712Z,62.22
2018-10-16T11:40:26.119Z,61.00
2018-10-16T11:42:54.554Z,60.92
2018-10-16T11:45:22.991Z,61.04
2018-10-16T11:47:51.499Z,61.05
2018-10-16T11:50:19.921Z,60.21
2018-10-16T11:52:48.372Z,59.49
2018-10-16T11:55:16.785Z,58.94
2018-10-16T11:57:45.616Z,59.29
2018-10-16T12:00:17.153Z,58.75
2018-10-16T12:02:45.878Z,58.20
2018-10-16T12:05:14.436Z,58.13
2018-10-16T12:07:43.148Z,58.16
2018-10-16T12:10:11.561Z,58.52
2018-10-16T12:12:40.053Z,57.97
2018-10-16T12:15:08.666Z,58.24
2018-10-16T12:18:48.204Z,56.73
2018-10-16T12:21:19.109Z,57.79
2018-10-16T12:23:47.712Z,56.63
2018-10-16T12:26:16.874Z,57.11
2018-10-16T12:28:45.468Z,57.05
2018-10-16T12:31:14.067Z,56.25
2018-10-16T12:33:42.554Z,56.33
2018-10-16T12:36:10.971Z,56.34
2018-10-16T12:38:39.449Z,56.80
2018-10-16T12:41:07.900Z,56.83
2018-10-16T12:43:37.017Z,56.57
2018-10-16T12:46:05.769Z,56.17
2018-10-16T12:48:34.149Z,56.43
2018-10-16T12:51:03.201Z,56.43
2018-10-16T12:53:31.565Z,56.34
2018-10-16T12:56:01.251Z,56.21
2018-10-16T12:58:29.671Z,57.37
2018-10-16T13:00:58.132Z,57.25
2018-10-16T13:03:26.694Z,58.22
2018-10-16T13:05:55.119Z,57.10
2018-10-16T13:08:23.605Z,56.97
2018-10-16T13:10:51.991Z,56.92
2018-10-16T13:13:20.462Z,56.17
2018-10-16T13:15:48.982Z,57.35
2018-10-16T13:18:17.349Z,57.24
2018-10-16T13:20:46.017Z,57.69
2018-10-16T13:23:14.540Z,57.84
2018-10-16T13:25:43.268Z,57.40
2018-10-16T13:28:11.800Z,55.71
2018-10-16T13:30:40.171Z,55.78
2018-10-16T13:33:11.878Z,56.54
2018-10-16T13:35:40.454Z,56.52
2018-10-16T13:38:09.224Z,56.40
2018-10-16T13:40:37.916Z,56.08
2018-10-16T13:43:06.681Z,56.35
2018-10-16T13:45:35.266Z,55.76
2018-10-16T13:48:04.154Z,56.02
2018-10-16T13:50:32.631Z,56.89
2018-10-16T13:53:01.322Z,56.77
2018-10-16T13:55:30.059Z,56.61
2018-10-16T13:57:58.619Z,56.83
2018-10-16T14:00:27.306Z,57.57
2018-10-16T14:02:56.016Z,56.84
2018-10-16T14:05:24.805Z,57.36
2018-10-16T14:07:53.410Z,57.25
2018-10-16T14:10:21.907Z,57.10
2018-10-16T14:12:50.339Z,57.22
2018-10-16T14:15:19.068Z,57.85
2018-10-16T14:17:47.751Z,57.50
2018-10-16T14:20:16.335Z,57.40
2018-10-16T14:22:44.856Z,57.79
2018-10-16T14:25:14.810Z,57.63
2018-10-16T14:27:43.779Z,56.86
2018-10-16T14:30:13.471Z,57.12
2018-10-16T14:32:43.751Z,56.95
2018-10-16T14:35:12.949Z,56.96
2018-10-16T14:37:42.317Z,57.00
2018-10-16T14:40:13.225Z,56.73
2018-10-16T14:42:42.030Z,57.42
2018-10-16T14:45:12.154Z,56.46
2018-10-16T14:50:09.043Z,57.49
2018-10-16T14:52:37.640Z,56.96
2018-10-16T14:55:06.582Z,57.85
2018-10-16T14:57:35.634Z,57.03
2018-10-16T15:00:04.339Z,57.75
2018-10-16T15:02:32.911Z,57.51
2018-10-16T15:05:01.533Z,58.42
2018-10-16T15:07:30.894Z,58.04
2018-10-16T15:09:59.565Z,58.88
2018-10-16T15:12:33.029Z,58.62
2018-10-16T15:15:02.727Z,58.87
2018-10-16T15:17:32.033Z,59.07
2018-10-16T15:20:01.185Z,59.05
2018-10-16T15:22:30.178Z,59.24
2018-10-16T15:24:59.046Z,59.39
2018-10-16T15:27:27.681Z,59.74
2018-10-16T15:29:56.234Z,59.53
2018-10-16T15:32:24.906Z,59.57
2018-10-16T15:34:53.488Z,59.86
2018-10-16T15:37:22.085Z,59.55
2018-10-16T15:39:50.744Z,59.81
2018-10-16T15:42:19.663Z,59.84
2018-10-16T15:44:48.588Z,60.70
2018-10-16T15:47:18.401Z,60.68
2018-10-16T15:49:47.222Z,61.16
2018-10-16T15:52:15.848Z,61.28
2018-10-16T15:54:44.618Z,61.68
2018-10-16T15:57:13.357Z,62.35
2018-10-16T15:59:42.083Z,62.59
2018-10-16T16:02:10.867Z,63.09
2018-10-16T16:04:39.523Z,63.24
2018-10-16T16:07:08.431Z,63.27
2018-10-16T16:09:37.344Z,63.59
2018-10-16T16:12:07.877Z,64.44
2018-10-16T16:14:36.829Z,64.60
2018-10-16T16:17:05.711Z,65.15
2018-10-16T16:19:34.731Z,65.49
2018-10-16T16:22:04.097Z,65.90
2018-10-16T16:24:32.906Z,66.41
2018-10-16T16:27:02.516Z,66.71
2018-10-16T16:29:31.603Z,66.61
2018-10-16T16:32:00.458Z,67.11
2018-10-16T16:34:29.492Z,67.68
2018-10-16T16:37:03.122Z,68.32
2018-10-16T16:39:32.901Z,68.87
2018-10-16T16:42:01.735Z,68.97
2018-10-16T16:44:31.133Z,69.38
2018-10-16T16:47:00.004Z,70.12
2018-10-16T16:49:30.098Z,69.98
2018-10-16T16:51:59.273Z,70.80
2018-10-16T16:54:28.541Z,70.41
2018-10-16T16:56:58.263Z,70.73
2018-10-16T16:59:27.628Z,71.86
2018-10-16T17:01:56.725Z,72.29
2018-10-16T17:04:25.957Z,72.32
2018-10-16T17:09:35.900Z,73.29
2018-10-16T17:12:05.179Z,72.64
2018-10-16T17:14:34.104Z,73.75
2018-10-16T17:17:03.191Z,73.78
2018-10-16T17:19:32.157Z,73.90
2018-10-16T17:22:01.156Z,74.19
2018-10-16T17:24:30.204Z,76.38
2018-10-16T17:27:01.010Z,76.86
2018-10-16T17:29:31.907Z,76.33
2018-10-16T17:32:04.221Z,76.94
2018-10-16T17:34:34.514Z,75.87
2018-10-16T17:37:05.956Z,76.86
2018-10-16T17:39:37.007Z,77.59
2018-10-16T17:42:06.176Z,77.18
2018-10-16T17:44:38.936Z,78.00
2018-10-16T17:47:12.486Z,78.47
2018-10-16T17:49:44.310Z,78.10
2018-10-16T17:52:17.752Z,79.32
2018-10-16T17:54:50.187Z,78.96
2018-10-16T17:57:23.484Z,79.07
2018-10-16T17:59:59.169Z,79.51
2018-10-16T18:02:32.120Z,79.95
2018-10-16T18:05:04.170Z,80.69
2018-10-16T18:07:36.406Z,80.19
2018-10-16T18:10:09.345Z,81.04
2018-10-16T18:15:32.119Z,80.72
2018-10-16T18:18:00.855Z,81.67
2018-10-16T18:23:46.270Z,82.38
2018-10-16T18:26:18.050Z,81.69
2018-10-16T18:28:48.497Z,82.14
2018-10-16T18:31:17.796Z,82.30
2018-10-16T18:33:48.661Z,83.29
2018-10-16T18:36:17.196Z,83.23
2018-10-16T18:38:48.125Z,83.81
2018-10-16T18:41:22.369Z,83.67
2018-10-16T18:43:54.657Z,84.52
2018-10-16T18:46:28.144Z,84.13
2018-10-16T18:48:57.502Z,84.05
2018-10-16T18:51:26.123Z,84.62
2018-10-16T18:53:55.005Z,84.13
2018-10-16T18:56:23.839Z,84.80
2018-10-16T18:58:52.978Z,84.27
2018-10-16T19:01:22.037Z,84.55
2018-10-16T19:03:50.602Z,84.97
2018-10-16T19:06:19.576Z,85.84
2018-10-16T19:08:48.257Z,85.38
2018-10-16T19:11:16.862Z,85.94
2018-10-16T19:13:45.516Z,86.12
2018-10-16T19:16:14.508Z,86.96
2018-10-16T19:18:43.125Z,87.24
2018-10-16T19:21:11.840Z,86.81
2018-10-16T19:23:40.472Z,87.98
2018-10-16T19:26:09.159Z,87.76
2018-10-16T19:28:38.017Z,87.33
2018-10-16T19:31:06.716Z,87.56
2018-10-16T19:33:36.462Z,88.58
2018-10-16T19:36:05.562Z,88.41
2018-10-16T19:38:34.318Z,88.30
2018-10-16T19:41:02.912Z,87.92
2018-10-16T19:43:34.789Z,88.80
2018-10-16T19:46:03.453Z,88.69
2018-10-16T19:48:32.210Z,89.63
2018-10-16T19:51:01.199Z,89.63
2018-10-16T19:53:30.322Z,90.27
2018-10-16T19:55:58.915Z,90.64
2018-10-16T19:58:27.493Z,90.41
2018-10-16T20:00:56.107Z,90.10
2018-10-16T20:03:25.374Z,89.67
2018-10-16T20:05:54.082Z,89.58
2018-10-16T20:08:22.746Z,90.57
2018-10-16T20:10:51.700Z,90.59
2018-10-16T20:13:20.242Z,91.20
2018-10-16T20:15:49.212Z,90.86
2018-10-16T20:18:17.898Z,90.59
2018-10-16T20:20:47.339Z,90.64
2018-10-16T20:23:15.982Z,91.28
2018-10-16T20:25:44.678Z,91.18
2018-10-16T20:28:13.322Z,91.13
2018-10-16T20:30:41.909Z,91.68
2018-10-16T20:33:25.958Z,91.92
2018-10-16T20:35:54.658Z,92.06
2018-10-16T20:38:23.311Z,91.82
2018-10-16T20:40:51.895Z,92.51
2018-10-16T20:43:20.515Z,92.77
2018-10-16T20:45:49.034Z,92.26
2018-10-16T20:48:17.778Z,92.10
2018-10-16T20:50:46.316Z,92.95
2018-10-16T20:53:14.904Z,92.33
2018-10-16T20:55:43.382Z,92.50
2018-10-16T20:58:11.975Z,92.70
2018-10-16T21:00:42.892Z,93.09
2018-10-16T21:03:14.739Z,93.21
2018-10-16T21:05:46.119Z,93.44
2018-10-16T21:08:14.600Z,93.36
2018-10-16T21:10:43.325Z,93.29
2018-10-16T21:13:11.841Z,93.60
2018-10-16T21:15:40.799Z,93.67
2018-10-16T21:18:09.257Z,93.88
2018-10-16T21:20:37.804Z,94.17
2018-10-16T21:23:06.808Z,93.97
2018-10-16T21:25:35.284Z,93.99
2018-10-16T21:28:03.899Z,94.49
2018-10-16T21:30:32.881Z,94.50
2018-10-16T21:33:01.458Z,94.74
2018-10-16T21:35:30.706Z,95.02
2018-10-16T21:37:59.503Z,96.04
2018-10-16T21:40:28.214Z,96.01
2018-10-16T21:42:56.785Z,95.41
2018-10-16T21:45:25.585Z,95.07
2018-10-16T21:47:54.022Z,95.75
2018-10-16T21:50:22.466Z,95.86
2018-10-16T21:52:51.089Z,96.11
2018-10-16T21:55:19.581Z,96.45
2018-10-16T21:57:48.072Z,97.09
2018-10-16T22:00:21.828Z,97.05
2018-10-16T22:02:50.791Z,97.04
2018-10-16T22:05:22.031Z,97.47
2018-10-16T22:07:51.960Z,97.45
2018-10-16T22:10:20.966Z,97.30
2018-10-16T22:12:49.400Z,97.27
2018-10-16T22:15:19.190Z,96.85
2018-10-16T22:17:47.637Z,96.69
2018-10-16T22:20:16.076Z,96.34
2018-10-16T22:22:45.314Z,96.85
2018-10-16T22:25:14.548Z,97.00
2018-10-16T22:27:43.049Z,96.22
2018-10-16T22:30:12.288Z,97.30
2018-10-16T22:32:40.730Z,96.97
2018-10-16T22:35:10.555Z,96.94
2018-10-16T22:37:39.784Z,97.12
2018-10-16T22:40:10.120Z,97.38
2018-10-16T22:42:38.642Z,97.56
2018-10-16T22:45:07.877Z,97.11
2018-10-16T22:47:36.313Z,97.49
2018-10-16T22:50:06.099Z,97.17
2018-10-16T22:52:34.592Z,97.53
2018-10-16T22:55:03.125Z,97.52
2018-10-16T22:57:31.605Z,98.36
2018-10-16T23:00:00.033Z,98.02
2018-10-16T23:02:28.444Z,98.12
2018-10-16T23:04:57.031Z,98.05
2018-10-16T23:07:25.622Z,97.50
2018-10-16T23:09:54.055Z,98.50
2018-10-16T23:12:22.596Z,98.45
2018-10-16T23:14:51.145Z,98.37
2018-10-16T23:17:19.578Z,98.89
2018-10-16T23:19:47.983Z,98.24
2018-10-16T23:22:16.425Z,98.66
2018-10-16T23:24:44.863Z,99.75
2018-10-16T23:27:13.234Z,100.00
2018-10-16T23:29:41.611Z,99.20
2018-10-16T23:32:10.091Z,99.78
2018-10-16T23:34:38.590Z,99.54
2018-10-16T23:37:07.563Z,100.00
2018-10-16T23:39:36.206Z,99.46
2018-10-16T23:42:04.666Z,99.78
2018-10-16T23:44:33.150Z,100.00
2018-10-16T23:47:02.354Z,99.85
2018-10-16T23:49:30.782Z,99.74
2018-10-16T23:51:59.309Z,100.00
2018-10-16T23:54:27.765Z,100.00
2018-10-16T23:56:56.273Z,100.00
2018-10-16T23:59:24.742Z,100.00
